Latest Coastal Weather Observations for Eucla

IDW60701

Issued at 3:42 am WST Wednesday 25 May 2016 (issued every 10 minutes, with the page automatically refreshed every 10 minutes)

About coastal observations | Map of coastal stations | Coastal observations for WA | Marine services | Other Formats
Station Details ID: 011003 Name: EUCLA Lat: -31.68 Lon: 128.90 Height: 93.1 m
Data from the previous 72 hours. | See also: Recent months at Eucla
Date/Time
WST
Temp

°C
Wind Pressure Rain
since 9am
mm
Weather Cloud Vis
km
Sea
Height
m
Swell
Dir
 
Speed
knots
Gust
knots
hPa Trend Height
m
Period
s
Dir
25/03:30am 14.6 NW 5 7 1008.7 - 3.0 - - - - - - -
25/03:00am 14.7 WNW 5 7 1009.0 - 2.2 Rain - - - - - -
25/02:30am 14.5 NW 4 5 1008.9 - 2.0 - - - - - - -
25/02:00am 14.7 WSW 4 7 1009.3 - 2.0 - - - - - - -
25/01:30am 14.8 SW 6 9 1009.1 - 1.2 - - - - - - -
25/01:00am 15.1 SSW 7 10 1008.9 - 1.0 - - - - - - -
25/12:30am 15.3 SW 6 9 1009.6 - 1.0 - - - - - - -
25/12:00am 15.5 WSW 5 7 1010.1 - 0.8 Recent precip. - - - - - -
 
Date/Time
WST
Temp

°C
Wind Pressure Rain
since 9am
mm
Weather Cloud Vis
km
Sea
Height
m
Swell
Dir
 
Speed
knots
Gust
knots
hPa Trend Height
m
Period
s
Dir
24/11:30pm 15.6 WSW 7 11 1010.6 - 0.8 - - - - - - -
24/11:00pm 16.6 WSW 9 15 1010.7 - 0.4 - - - - - - -
24/10:30pm 16.7 WNW 9 14 1011.0 - 0.2 - - - - - - -
24/10:00pm 17.2 SW 7 9 1010.7 - 0.0 - - - - - - -
24/09:30pm 17.6 WSW 6 9 1011.6 - 0.0 - - - - - - -
24/09:00pm 17.7 SW 6 8 1010.9 - 0.0 - - - - - - -
24/08:30pm 18.7 W 7 10 1010.1 - 0.0 - - - - - - -
24/08:00pm 20.7 WSW 9 15 1009.7 - 0.0 - - - - - - -
24/07:30pm 21.5 WSW 13 20 1009.9 - 0.0 - - - - - - -
24/07:18pm 23.4 W 8 22 1009.6 - 0.0 - - - - - - -
24/07:00pm 24.1 WNW 6 9 1009.2 - 0.0 - - - - - - -
24/06:30pm 24.1 WNW 7 10 1009.0 - 0.0 - - - - - - -
24/06:00pm 23.3 NW 11 19 1009.3 - 0.0 - - - - - - -
24/05:30pm 25.0 NNW 9 14 1008.4 - 0.0 - - - - - - -
24/05:00pm 25.1 NNW 9 13 1007.9 - 0.0 - - - - - - -
24/04:30pm 25.8 NNW 9 13 1007.7 - 0.0 - - - - - - -
24/04:00pm 26.5 NNW 10 16 1007.6 - 0.0 - - - - - - -
24/03:30pm 27.5 NW 13 19 1007.7 - 0.0 - - - - - - -
24/03:00pm 27.8 NW 15 25 1007.8 - 0.0 Fine Partly cloudy 40 - - - -
24/02:30pm 28.2 NW 18 29 1008.0 - 0.0 - - - - - - -
24/02:09pm 28.2 NW 16 26 1007.9 - 0.0 - - - - - - -
24/02:00pm 27.6 NW 16 22 1007.9 - 0.0 - - - - - - -
24/01:51pm 27.8 NW 17 27 1007.9 - 0.0 - - - - - - -
24/01:30pm 27.5 NW 17 25 1008.0 - 0.0 - - - - - - -
24/01:10pm 27.5 NW 15 25 1008.4 - 0.0 - - - - - - -
24/01:00pm 27.6 NW 16 23 1008.7 - 0.0 - - - - - - -
24/12:35pm 27.1 NNW 15 25 1009.0 - 0.0 - - - - - - -
24/12:30pm 27.3 NNW 15 24 1009.1 - 0.0 - - - - - - -
24/12:20pm 26.8 NNW 17 27 1009.3 - 0.0 - - - - - - -
24/12:00pm 25.6 NNW 12 21 1009.7 - 0.0 - - - - - - -
24/11:30am 26.2 NNW 14 23 1010.3 - 0.0 - - - - - - -
24/11:00am 24.7 NNW 14 20 1011.6 - 0.0 - - - - - - -
24/10:30am 23.2 N 13 18 1012.4 - 0.0 - - - - - - -
24/10:00am 21.4 N 14 19 1012.7 - 0.0 - - - - - - -
24/09:30am 19.7 N 15 21 1013.2 - 0.0 - - - - - - -
24/09:00am 17.6 N 15 21 1013.5 - 0.0 Fine Partly cloudy 40 - - - -
24/08:30am 15.6 N 15 21 1013.7 - 0.0 - - - - - - -
24/08:00am 13.8 N 15 21 1014.1 - 0.0 - - - - - - -
24/07:30am 13.1 N 15 20 1014.3 - 0.0 - - - - - - -
24/07:00am 11.4 N 14 19 1014.6 - 0.0 - - - - - - -
24/06:30am 9.9 N 14 20 1014.9 - 0.0 - - - - - - -
24/06:00am 9.4 N 14 18 1014.9 - 0.0 - - - - - - -
24/05:30am 9.2 N 14 19 1014.9 - 0.0 - - - - - - -
24/05:00am 9.0 N 13 18 1014.9 - 0.0 - - - - - - -
24/04:30am 9.3 N 12 17 1015.3 - 0.0 - - - - - - -
24/04:00am 9.7 NNE 13 17 1015.1 - 0.0 - - - - - - -
24/03:30am 10.8 NNE 13 17 1015.5 - 0.0 - - - - - - -
24/03:00am 10.3 NNE 11 16 1016.2 - 0.0 - - - - - - -
24/02:30am 10.4 NNE 11 16 1016.6 - 0.0 - - - - - - -
24/02:00am 10.7 NNE 11 18 1016.9 - 0.0 - - - - - - -
24/01:30am 10.6 NNE 13 17 1017.2 - 0.0 - - - - - - -
24/01:00am 10.4 NNE 11 16 1017.4 - 0.0 - - - - - - -
24/12:30am 10.5 NNE 11 17 1017.7 - 0.0 - - - - - - -
24/12:00am 8.9 NNE 9 13 1018.1 - 0.0 - - - - - - -
 
Date/Time
WST
Temp

°C
Wind Pressure Rain
since 9am
mm
Weather Cloud Vis
km
Sea
Height
m
Swell
Dir
 
Speed
knots
Gust
knots
hPa Trend Height
m
Period
s
Dir
23/11:30pm 8.4 NNE 8 10 1018.5 - 0.0 - - - - - - -
23/11:00pm 9.0 NNE 8 11 1019.0 - 0.0 - - - - - - -
23/10:30pm 9.4 NNE 8 10 1019.5 - 0.0 - - - - - - -
23/10:00pm 10.1 NE 7 9 1020.0 - 0.0 - - - - - - -
23/09:30pm 11.0 NE 7 9 1020.4 - 0.0 - - - - - - -
23/09:00pm 10.6 NE 7 7 1021.1 - 0.0 - - - - - - -
23/08:30pm 10.8 NE 7 7 1021.4 - 0.0 - - - - - - -
23/08:00pm 11.4 NE 5 6 1021.4 - 0.0 - - - - - - -
23/07:30pm 12.7 NE 6 7 1021.3 - 0.0 - - - - - - -
23/07:00pm 13.9 NE 7 10 1021.3 - 0.0 - - - - - - -
23/06:30pm 14.1 ENE 6 9 1021.3 - 0.0 - - - - - - -
23/06:00pm 14.3 ENE 7 9 1021.4 - 0.0 - - - - - - -
23/05:30pm 14.3 ENE 6 8 1021.5 - 0.0 - - - - - - -
23/05:00pm 14.8 E 5 7 1021.7 - 0.0 - - - - - - -
23/04:30pm 15.6 E 6 9 1021.4 - 0.0 - - - - - - -
23/04:00pm 16.6 E 6 10 1021.4 - 0.0 - - - - - - -
23/03:30pm 18.0 E 8 10 1021.4 - 0.0 - - - - - - -
23/03:00pm 18.7 ESE 7 10 1021.6 - 0.0 Fine Partly cloudy 40 - - - -
23/02:30pm 18.8 ESE 8 10 1021.5 - 0.0 - - - - - - -
23/02:00pm 19.5 ESE 8 10 1021.9 - 0.0 - - - - - - -
23/01:30pm 20.0 SE 8 12 1022.4 - 0.0 - - - - - - -
23/01:00pm 19.8 SSE 8 11 1022.5 - 0.0 - - - - - - -
23/12:30pm 20.2 ESE 6 10 1022.6 - 0.0 - - - - - - -
23/12:00pm 20.7 NNE 6 9 1023.2 - 0.0 - - - - - - -
23/11:30am 20.3 N 5 6 1023.8 - 0.0 - - - - - - -
23/11:00am 20.5 NNE 5 7 1024.3 - 0.0 - - - - - - -
23/10:30am 19.9 W 4 6 1024.9 - 0.0 - - - - - - -
23/10:00am 19.3 N 5 8 1025.1 - 0.0 - - - - - - -
23/09:30am 18.3 NNW 7 9 1025.4 - 0.0 - - - - - - -
23/09:00am 17.1 NNW 6 9 1025.2 - 0.2 Fine Clear 40 - - - -
23/08:30am 15.2 N 6 8 1025.3 - 0.2 - - - - - - -
23/08:00am 12.3 NNW 6 7 1025.1 - 0.2 - - - - - - -
23/07:30am 9.4 NNW 6 8 1024.7 - 0.2 - - - - - - -
23/07:00am 6.3 NNW 7 8 1024.4 - 0.2 - - - - - - -
23/06:30am 4.2 NNW 6 8 1024.2 - 0.2 - - - - - - -
23/06:00am 4.0 NNW 6 7 1023.9 - 0.2 - - - - - - -
23/05:30am 4.4 NNW 6 7 1023.6 - 0.2 - - - - - - -
23/05:00am 3.9 NNW 6 7 1023.6 - 0.2 - - - - - - -
23/04:30am 5.0 NNW 6 8 1023.7 - 0.2 - - - - - - -
23/04:00am 5.6 NW 6 7 1023.4 - 0.2 - - - - - - -
23/03:30am 5.0 NNW 6 8 1023.3 - 0.2 - - - - - - -
23/03:00am 6.3 NNW 7 9 1023.1 - 0.2 - - - - - - -
23/02:30am 6.2 NNW 7 8 1023.1 - 0.2 - - - - - - -
23/02:00am 6.5 NW 6 8 1023.0 - 0.2 - - - - - - -
23/01:30am 6.0 NNW 6 7 1022.8 - 0.2 - - - - - - -
23/01:00am 6.6 NNW 7 8 1022.6 - 0.2 - - - - - - -
23/12:30am 6.0 NNW 7 8 1022.7 - 0.2 - - - - - - -
23/12:00am 5.9 NNW 6 8 1022.7 - 0.2 - - - - - - -
 
Date/Time
WST
Temp

°C
Wind Pressure Rain
since 9am
mm
Weather Cloud Vis
km
Sea
Height
m
Swell
Dir
 
Speed
knots
Gust
knots
hPa Trend Height
m
Period
s
Dir
22/11:30pm 6.4 NNW 6 7 1022.6 - 0.2 - - - - - - -
22/11:00pm 6.7 NNW 6 6 1022.3 - 0.2 - - - - - - -
22/10:30pm 6.7 NNW 6 7 1022.2 - 0.2 - - - - - - -
22/10:00pm 6.2 NNW 6 7 1022.4 - 0.2 - - - - - - -
22/09:30pm 8.4 N 5 6 1022.6 - 0.2 - - - - - - -
22/09:00pm 8.4 NW 5 6 1022.3 - 0.2 - - - - - - -
22/08:30pm 8.1 NNW 6 7 1022.1 - 0.2 - - - - - - -
22/08:00pm 9.9 NW 6 6 1021.8 - 0.2 - - - - - - -
22/07:30pm 9.5 W 4 5 1021.5 - 0.2 - - - - - - -
22/07:00pm 11.6 WNW 5 6 1021.0 - 0.2 - - - - - - -
22/06:30pm 13.2 WNW 6 7 1020.5 - 0.2 - - - - - - -
22/06:00pm 14.2 WNW 6 7 1020.1 - 0.2 - - - - - - -
22/05:30pm 14.5 W 6 8 1019.4 - 0.2 - - - - - - -
22/05:00pm 14.1 W 5 7 1018.9 - 0.2 - - - - - - -
22/04:30pm 15.5 W 7 10 1018.2 - 0.2 - - - - - - -
22/04:00pm 16.5 W 9 15 1017.7 - 0.2 - - - - - - -
22/03:30pm 17.6 W 9 16 1017.3 - 0.2 - - - - - - -
22/03:00pm 18.3 W 10 17 1016.9 - 0.2 Fine Mostly clear 40 - - - -
22/02:30pm 18.5 W 11 19 1016.4 - 0.2 - - - - - - -
22/02:00pm 18.5 W 12 19 1016.1 - 0.2 - - - - - - -
22/01:30pm 18.7 W 11 20 1015.8 - 0.2 - - - - - - -
22/01:00pm 18.2 W 13 20 1015.7 - 0.2 - - - - - - -
22/12:51pm 18.3 WNW 15 25 1015.7 - 0.2 - - - - - - -
22/12:30pm 18.2 W 14 22 1015.6 - 0.2 - - - - - - -
22/12:00pm 17.7 W 14 25 1015.5 - 0.2 - - - - - - -
22/11:54am 17.7 W 15 25 1015.5 - 0.2 - - - - - - -
22/11:30am 17.4 W 14 21 1015.4 - 0.2 - - - - - - -
22/11:02am 17.3 W 15 25 1015.4 - 0.2 - - - - - - -
22/11:00am 17.4 W 16 25 1015.5 - 0.2 - - - - - - -
22/10:50am 17.0 W 17 27 1015.4 - 0.2 - - - - - - -
22/10:30am 16.9 W 14 21 1015.2 - 0.2 - - - - - - -
22/10:00am 15.6 W 13 23 1015.0 - 0.0 - - - - - - -
22/09:34am 15.0 W 16 26 1015.1 - 0.0 - - - - - - -
22/09:30am 15.3 WNW 17 26 1015.1 - 0.0 - - - - - - -
22/09:25am 15.2 WNW 16 26 1015.0 - 0.0 - - - - - - -
22/09:00am 14.7 W 14 20 1014.7 - 0.0 Fine Mostly clear 40 - - - -
22/08:30am 14.0 W 16 26 1014.3 - 0.0 - - - - - - -
22/08:16am 13.6 W 15 25 1014.1 - 0.0 - - - - - - -
22/08:00am 13.6 WNW 14 23 1013.7 - 0.0 - - - - - - -
22/07:35am 13.1 WNW 16 29 1013.2 - 0.0 - - - - - - -
22/07:30am 13.1 WNW 14 21 1013.0 - 0.0 - - - - - - -
22/07:00am 12.7 WNW 11 19 1012.3 - 0.0 - - - - - - -
22/06:30am 12.3 WNW 13 21 1011.8 - 0.0 - - - - - - -
22/06:00am 12.4 NW 11 17 1011.0 - 0.0 - - - - - - -
22/05:30am 13.1 WNW 10 14 1010.1 - 0.0 - - - - - - -
22/05:00am 13.1 NW 8 13 1009.6 - 0.0 - - - - - - -
22/04:30am 13.0 NW 9 12 1008.5 - 0.0 - - - - - - -
22/04:00am 13.3 WNW 9 14 1008.2 - 0.0 - - - - - - -

Other Formats:

Comma delimited format used in spreadsheet applications
http://www.bom.gov.au/fwo/IDW60701/IDW60701.94647.axf

JavaScript Object Notation format (JSON) in row-major order
http://www.bom.gov.au/fwo/IDW60701/IDW60701.94647.json